Trenton, Kentucky
Current Conditions -  °F | °C
As of 12:17 AM on Monday 26 Jan 2015 (Local Time) from KCKV Reporting Station
Overcast Overcast  
Wind Chill: 29°   Ceiling: 800
Heat Index: 39°   Visibility: 10mi
Dew Point: 36°   Wind: 22mph
Humidity: 89%   Direction: 320°NW
Pressure: 29.81"   Gusts: 30mph
Location:  36.72°N, 87.26°W
Report Text: KCKV 260617Z AUTO 32019G26KT 10SM BKN008 OVC012 04/02 A2981 RMK AO2 PK WND 32026/0613 CIG 007V010 T00390022 $
Loading
Personal Weather Stations






























Interactive Weather Map New forecast layout! Learn more

10-Day Weather Forecast

Advertisements
Track Severe Weather on mobile